Hovedside
METAR-TAF:

METAR-TAF

Lufthavner :

Esbjerg lufthavn

Esbjerg, Danmark

breddegrad: 55-32N, lengdegrad: 008-34E, høyde over havet: 30 m

Gjeldene værobservasjon

Denne rapporten ble laget for 47 minutter siden, klokken 16:50 UTC
Vind 6 kt fra Vest-nordvest, skiftende mellom Vest-sørvest og Nordvest
Temperatur 19°C
Luftfuktighet 64%
Trykk 1021 hPa
Sikt 10 km eller mer

METAR: EKEB 241650Z AUTO 29006KT 250V320 9999 NCD 19/12 Q1021

Tid: 19:37 (17:37 UTC)

Varsel

Denne rapporten ble laget for 3 timer og 33 minutter siden, klokken 14:04 UTC
Varsel gyldig fra 24. klokken 15 UTC til 24. klokken 22 UTC
Vind 7 kt fra Vest-nordvest
Sikt 10 km eller mer
ingen skyer under 1500 m og ingen bygeskyer

TAF: EKEB 241404Z 2415/2422 30007KT CAVOK

Værobservasjoner og værvarsel for over 4000 flyplasser (METAR- og TAF-rapporter).

Tilgjengelige stasjoner er representert av de røde og gule prikkene på kartet.

Hold musepekeren over prikken for å se navnet på stasjonen.

Klikk så for å se værobservasjoner og -varsler.

For å forandre kartet kan du klikke på den grønne knappen med svart kryss for å zoome inn, på den grønne knappen med strek for å zoome ut, eller på de grønne pilene for å se tilstøtende kart.


METAR-TAF: